sensor_id;sensor_type;location;lat;lon;timestamp;pressure;altitude;pressure_sealevel;temperature;humidity
41040;BME280;48586;50.122;18.972;2024-01-11T00:02:25;99812.22;;;-10.47;56.39
41040;BME280;48586;50.122;18.972;2024-01-11T00:05:31;99811.34;;;-10.44;56.00
41040;BME280;48586;50.122;18.972;2024-01-11T00:08:36;99806.16;;;-10.50;55.83
41040;BME280;48586;50.122;18.972;2024-01-11T00:11:42;99790.56;;;-10.55;55.94
41040;BME280;48586;50.122;18.972;2024-01-11T00:14:47;99789.66;;;-10.59;55.90
41040;BME280;48586;50.122;18.972;2024-01-11T00:17:55;99786.22;;;-10.59;55.91
41040;BME280;48586;50.122;18.972;2024-01-11T00:21:00;99779.31;;;-10.62;55.79
41040;BME280;48586;50.122;18.972;2024-01-11T00:24:06;99786.19;;;-10.62;56.04
41040;BME280;48586;50.122;18.972;2024-01-11T00:27:10;99787.06;;;-10.62;56.26
41040;BME280;48586;50.122;18.972;2024-01-11T00:30:16;99778.41;;;-10.64;56.22
41040;BME280;48586;50.122;18.972;2024-01-11T00:33:23;99797.59;;;-10.42;56.40
41040;BME280;48586;50.122;18.972;2024-01-11T00:36:28;99788.19;;;-10.29;56.03
41040;BME280;48586;50.122;18.972;2024-01-11T00:39:34;99776.09;;;-10.27;55.86
41040;BME280;48586;50.122;18.972;2024-01-11T00:42:39;99787.41;;;-10.13;55.65
41040;BME280;48586;50.122;18.972;2024-01-11T00:45:44;99777.97;;;-10.03;55.54
41040;BME280;48586;50.122;18.972;2024-01-11T00:48:53;99772.84;;;-9.96;55.66
41040;BME280;48586;50.122;18.972;2024-01-11T00:51:57;99761.63;;;-9.95;55.13
41040;BME280;48586;50.122;18.972;2024-01-11T00:55:03;99757.25;;;-10.02;55.42
41040;BME280;48586;50.122;18.972;2024-01-11T00:58:08;99757.25;;;-10.06;55.77
41040;BME280;48586;50.122;18.972;2024-01-11T01:01:14;99757.25;;;-10.03;55.72
41040;BME280;48586;50.122;18.972;2024-01-11T01:04:21;99760.75;;;-9.98;55.59
41040;BME280;48586;50.122;18.972;2024-01-11T01:07:26;99754.72;;;-9.96;55.26
41040;BME280;48586;50.122;18.972;2024-01-11T01:10:31;99746.94;;;-9.96;55.14
41040;BME280;48586;50.122;18.972;2024-01-11T01:13:36;99757.31;;;-9.96;54.93
41040;BME280;48586;50.122;18.972;2024-01-11T01:16:40;99758.16;;;-10.00;55.09
41040;BME280;48586;50.122;18.972;2024-01-11T01:19:49;99766.81;;;-9.98;55.07
41040;BME280;48586;50.122;18.972;2024-01-11T01:22:53;99766.00;;;-9.87;54.90
41040;BME280;48586;50.122;18.972;2024-01-11T01:25:58;99771.22;;;-9.78;54.50
41040;BME280;48586;50.122;18.972;2024-01-11T01:29:03;99769.56;;;-9.67;54.18
41040;BME280;48586;50.122;18.972;2024-01-11T01:32:08;99755.75;;;-9.58;53.71
41040;BME280;48586;50.122;18.972;2024-01-11T01:35:16;99760.09;;;-9.48;53.26
41040;BME280;48586;50.122;18.972;2024-01-11T01:38:21;99759.22;;;-9.49;52.72
41040;BME280;48586;50.122;18.972;2024-01-11T01:41:26;99754.94;;;-9.44;52.95
41040;BME280;48586;50.122;18.972;2024-01-11T01:44:31;99742.84;;;-9.45;52.85
41040;BME280;48586;50.122;18.972;2024-01-11T01:47:36;99739.34;;;-9.51;52.81
41040;BME280;48586;50.122;18.972;2024-01-11T01:50:48;99741.94;;;-9.56;53.03
41040;BME280;48586;50.122;18.972;2024-01-11T01:53:54;99741.91;;;-9.57;52.85
41040;BME280;48586;50.122;18.972;2024-01-11T01:57:03;99739.31;;;-9.62;52.49
41040;BME280;48586;50.122;18.972;2024-01-11T02:00:11;99733.25;;;-9.66;52.55
41040;BME280;48586;50.122;18.972;2024-01-11T02:03:17;99747.91;;;-9.71;52.42
41040;BME280;48586;50.122;18.972;2024-01-11T02:06:29;99742.72;;;-9.77;52.55
41040;BME280;48586;50.122;18.972;2024-01-11T02:09:40;99730.63;;;-9.75;52.30
41040;BME280;48586;50.122;18.972;2024-01-11T02:12:44;99724.56;;;-9.78;52.24
41040;BME280;48586;50.122;18.972;2024-01-11T02:15:50;99733.19;;;-9.85;52.27
41040;BME280;48586;50.122;18.972;2024-01-11T02:18:55;99734.91;;;-9.87;52.28
41040;BME280;48586;50.122;18.972;2024-01-11T02:22:12;99737.44;;;-9.93;52.75
41040;BME280;48586;50.122;18.972;2024-01-11T02:25:27;99717.63;;;-9.87;52.55
41040;BME280;48586;50.122;18.972;2024-01-11T02:28:33;99721.09;;;-9.86;52.31
41040;BME280;48586;50.122;18.972;2024-01-11T02:31:37;99716.75;;;-9.84;52.42
41040;BME280;48586;50.122;18.972;2024-01-11T02:34:43;99704.63;;;-9.98;52.23
41040;BME280;48586;50.122;18.972;2024-01-11T02:37:48;99707.16;;;-10.01;52.73
41040;BME280;48586;50.122;18.972;2024-01-11T02:40:59;99711.53;;;-9.98;52.88
41040;BME280;48586;50.122;18.972;2024-01-11T02:44:04;99708.94;;;-9.97;52.78
41040;BME280;48586;50.122;18.972;2024-01-11T02:47:09;99709.75;;;-10.01;52.76
41040;BME280;48586;50.122;18.972;2024-01-11T02:50:14;99706.34;;;-10.00;52.68
41040;BME280;48586;50.122;18.972;2024-01-11T02:53:19;99708.06;;;-9.99;52.77
41040;BME280;48586;50.122;18.972;2024-01-11T02:56:26;99714.97;;;-9.98;52.46
41040;BME280;48586;50.122;18.972;2024-01-11T02:59:31;99716.72;;;-9.97;52.63
41040;BME280;48586;50.122;18.972;2024-01-11T03:02:37;99719.31;;;-9.93;52.54
41040;BME280;48586;50.122;18.972;2024-01-11T03:05:42;99727.09;;;-9.90;52.71
41040;BME280;48586;50.122;18.972;2024-01-11T03:08:47;99726.22;;;-9.91;52.43
41040;BME280;48586;50.122;18.972;2024-01-11T03:11:55;99724.50;;;-9.95;52.66
41040;BME280;48586;50.122;18.972;2024-01-11T03:15:00;99731.41;;;-9.91;52.81
41040;BME280;48586;50.122;18.972;2024-01-11T03:18:05;99721.09;;;-9.83;52.79
41040;BME280;48586;50.122;18.972;2024-01-11T03:21:09;99707.25;;;-9.79;52.24
41040;BME280;48586;50.122;18.972;2024-01-11T03:24:15;99704.69;;;-9.79;52.05
41040;BME280;48586;50.122;18.972;2024-01-11T03:27:22;99700.34;;;-9.83;52.32
41040;BME280;48586;50.122;18.972;2024-01-11T03:30:28;99694.25;;;-9.95;52.50
41040;BME280;48586;50.122;18.972;2024-01-11T03:33:32;99677.75;;;-10.13;53.18
41040;BME280;48586;50.122;18.972;2024-01-11T03:36:38;99678.56;;;-10.27;53.58
41040;BME280;48586;50.122;18.972;2024-01-11T03:39:42;99685.41;;;-10.35;53.81
41040;BME280;48586;50.122;18.972;2024-01-11T03:42:50;99687.94;;;-10.42;54.12
41040;BME280;48586;50.122;18.972;2024-01-11T03:45:54;99676.75;;;-10.41;54.28
41040;BME280;48586;50.122;18.972;2024-01-11T03:49:00;99666.41;;;-10.41;54.07
41040;BME280;48586;50.122;18.972;2024-01-11T03:52:05;99667.16;;;-10.55;54.25
41040;BME280;48586;50.122;18.972;2024-01-11T03:55:11;99665.44;;;-10.59;54.58
41040;BME280;48586;50.122;18.972;2024-01-11T03:58:18;99683.47;;;-10.66;54.85
41040;BME280;48586;50.122;18.972;2024-01-11T04:01:23;99686.00;;;-10.75;54.96
41040;BME280;48586;50.122;18.972;2024-01-11T04:04:27;99682.53;;;-10.80;55.21
41040;BME280;48586;50.122;18.972;2024-01-11T04:07:33;99676.50;;;-10.79;55.44
41040;BME280;48586;50.122;18.972;2024-01-11T04:10:38;99683.41;;;-10.78;55.20
41040;BME280;48586;50.122;18.972;2024-01-11T04:13:46;99686.00;;;-10.75;55.00
41040;BME280;48586;50.122;18.972;2024-01-11T04:16:50;99684.25;;;-10.83;54.98
41040;BME280;48586;50.122;18.972;2024-01-11T04:19:55;99653.09;;;-10.96;54.92
41040;BME280;48586;50.122;18.972;2024-01-11T04:23:00;99686.84;;;-10.79;54.92
41040;BME280;48586;50.122;18.972;2024-01-11T04:26:05;99670.47;;;-10.77;54.75
41040;BME280;48586;50.122;18.972;2024-01-11T04:29:12;99672.19;;;-10.80;54.74
41040;BME280;48586;50.122;18.972;2024-01-11T04:32:17;99673.03;;;-10.85;54.76
41040;BME280;48586;50.122;18.972;2024-01-11T04:35:22;99649.69;;;-10.94;54.88
41040;BME280;48586;50.122;18.972;2024-01-11T04:38:27;99654.00;;;-10.85;54.88
41040;BME280;48586;50.122;18.972;2024-01-11T04:41:32;99660.03;;;-10.88;55.02
41040;BME280;48586;50.122;18.972;2024-01-11T04:44:42;99656.59;;;-10.85;54.89
41040;BME280;48586;50.122;18.972;2024-01-11T04:47:47;99673.91;;;-10.83;54.93
41040;BME280;48586;50.122;18.972;2024-01-11T04:50:54;99684.28;;;-10.76;54.97
41040;BME280;48586;50.122;18.972;2024-01-11T04:53:59;99666.22;;;-10.72;54.63
41040;BME280;48586;50.122;18.972;2024-01-11T04:57:04;99651.56;;;-10.70;54.55
41040;BME280;48586;50.122;18.972;2024-01-11T05:00:12;99659.25;;;-10.77;54.61
41040;BME280;48586;50.122;18.972;2024-01-11T05:03:18;99671.34;;;-10.75;54.96
41040;BME280;48586;50.122;18.972;2024-01-11T05:06:23;99673.97;;;-10.69;54.54
41040;BME280;48586;50.122;18.972;2024-01-11T05:09:29;99677.44;;;-10.67;54.44
41040;BME280;48586;50.122;18.972;2024-01-11T05:12:33;99670.50;;;-10.74;54.59
41040;BME280;48586;50.122;18.972;2024-01-11T05:15:42;99660.97;;;-10.76;54.67
41040;BME280;48586;50.122;18.972;2024-01-11T05:18:47;99660.09;;;-10.82;54.66
41040;BME280;48586;50.122;18.972;2024-01-11T05:21:52;99662.69;;;-10.83;54.74
41040;BME280;48586;50.122;18.972;2024-01-11T05:24:57;99641.06;;;-10.90;54.92
41040;BME280;48586;50.122;18.972;2024-01-11T05:28:04;99648.84;;;-10.93;55.12
41040;BME280;48586;50.122;18.972;2024-01-11T05:31:12;99637.63;;;-10.95;55.08
41040;BME280;48586;50.122;18.972;2024-01-11T05:34:19;99624.63;;;-11.02;55.23
41040;BME280;48586;50.122;18.972;2024-01-11T05:37:23;99619.44;;;-11.04;55.50
41040;BME280;48586;50.122;18.972;2024-01-11T05:40:29;99608.25;;;-11.03;55.42
41040;BME280;48586;50.122;18.972;2024-01-11T05:43:33;99609.97;;;-11.03;55.42
41040;BME280;48586;50.122;18.972;2024-01-11T05:46:41;99618.59;;;-11.01;55.28
41040;BME280;48586;50.122;18.972;2024-01-11T05:49:46;99635.91;;;-10.94;55.45
41040;BME280;48586;50.122;18.972;2024-01-11T05:52:52;99641.88;;;-11.00;55.30
41040;BME280;48586;50.122;18.972;2024-01-11T05:55:57;99625.38;;;-11.16;55.36
41040;BME280;48586;50.122;18.972;2024-01-11T05:59:03;99633.16;;;-11.11;55.24
41040;BME280;48586;50.122;18.972;2024-01-11T06:02:10;99631.44;;;-11.09;55.38
41040;BME280;48586;50.122;18.972;2024-01-11T06:05:17;99624.59;;;-11.05;55.14
41040;BME280;48586;50.122;18.972;2024-01-11T06:08:22;99603.84;;;-11.13;55.54
41040;BME280;48586;50.122;18.972;2024-01-11T06:11:29;99605.66;;;-11.01;55.17
41040;BME280;48586;50.122;18.972;2024-01-11T06:14:34;99621.97;;;-11.07;55.13
41040;BME280;48586;50.122;18.972;2024-01-11T06:17:43;99620.25;;;-11.09;55.38
41040;BME280;48586;50.122;18.972;2024-01-11T06:20:48;99628.03;;;-11.06;55.34
41040;BME280;48586;50.122;18.972;2024-01-11T06:23:54;99635.84;;;-10.99;55.12
41040;BME280;48586;50.122;18.972;2024-01-11T06:26:59;99625.56;;;-10.93;55.15
41040;BME280;48586;50.122;18.972;2024-01-11T06:30:07;99624.72;;;-10.83;54.37
41040;BME280;48586;50.122;18.972;2024-01-11T06:33:15;99629.03;;;-10.83;54.50
41040;BME280;48586;50.122;18.972;2024-01-11T06:36:23;99609.22;;;-10.83;54.43
41040;BME280;48586;50.122;18.972;2024-01-11T06:39:27;99603.97;;;-10.87;54.39
41040;BME280;48586;50.122;18.972;2024-01-11T06:42:33;99597.09;;;-10.93;54.80
41040;BME280;48586;50.122;18.972;2024-01-11T06:45:39;99592.78;;;-10.91;54.77
41040;BME280;48586;50.122;18.972;2024-01-11T06:48:47;99591.00;;;-10.99;54.81
41040;BME280;48586;50.122;18.972;2024-01-11T06:51:52;99589.25;;;-11.05;55.08
41040;BME280;48586;50.122;18.972;2024-01-11T06:54:58;99572.88;;;-11.04;55.49
41040;BME280;48586;50.122;18.972;2024-01-11T06:58:03;99547.91;;;-10.97;55.28
41040;BME280;48586;50.122;18.972;2024-01-11T07:01:09;99551.41;;;-10.92;55.21
41040;BME280;48586;50.122;18.972;2024-01-11T07:04:18;99548.78;;;-10.88;54.94
41040;BME280;48586;50.122;18.972;2024-01-11T07:07:24;99537.63;;;-10.80;54.81
41040;BME280;48586;50.122;18.972;2024-01-11T07:10:30;99527.22;;;-10.87;54.73
41040;BME280;48586;50.122;18.972;2024-01-11T07:13:37;99522.94;;;-10.91;55.07
41040;BME280;48586;50.122;18.972;2024-01-11T07:16:43;99542.75;;;-10.90;55.23
41040;BME280;48586;50.122;18.972;2024-01-11T07:19:52;99536.75;;;-10.93;55.41
41040;BME280;48586;50.122;18.972;2024-01-11T07:22:58;99533.31;;;-10.85;55.55
41040;BME280;48586;50.122;18.972;2024-01-11T07:26:04;99516.06;;;-10.79;55.11
41040;BME280;48586;50.122;18.972;2024-01-11T07:29:09;99511.78;;;-10.73;55.07
41040;BME280;48586;50.122;18.972;2024-01-11T07:32:16;99510.06;;;-10.71;55.29
41040;BME280;48586;50.122;18.972;2024-01-11T07:35:24;99503.19;;;-10.67;55.36
41040;BME280;48586;50.122;18.972;2024-01-11T07:38:31;99510.13;;;-10.54;55.46
41040;BME280;48586;50.122;18.972;2024-01-11T07:41:37;99524.88;;;-10.41;55.43
41040;BME280;48586;50.122;18.972;2024-01-11T07:44:44;99522.31;;;-10.26;55.29
41040;BME280;48586;50.122;18.972;2024-01-11T07:47:50;99524.94;;;-10.16;55.30
41040;BME280;48586;50.122;18.972;2024-01-11T07:50:59;99538.78;;;-9.96;55.61
41040;BME280;48586;50.122;18.972;2024-01-11T07:54:04;99547.47;;;-9.60;55.45
41040;BME280;48586;50.122;18.972;2024-01-11T07:57:10;99537.97;;;-9.25;55.14
41040;BME280;48586;50.122;18.972;2024-01-11T08:00:16;99524.06;;;-8.89;53.74
41040;BME280;48586;50.122;18.972;2024-01-11T08:03:23;99517.94;;;-8.69;53.10
41040;BME280;48586;50.122;18.972;2024-01-11T08:06:32;99511.88;;;-8.65;53.13
41040;BME280;48586;50.122;18.972;2024-01-11T08:09:39;99499.69;;;-8.50;53.34
41040;BME280;48586;50.122;18.972;2024-01-11T08:12:48;99481.50;;;-8.51;52.92
41040;BME280;48586;50.122;18.972;2024-01-11T08:15:56;99491.81;;;-8.28;53.01
41040;BME280;48586;50.122;18.972;2024-01-11T08:19:02;99482.16;;;-8.08;52.99
41040;BME280;48586;50.122;18.972;2024-01-11T08:22:11;99469.91;;;-7.92;51.92
41040;BME280;48586;50.122;18.972;2024-01-11T08:25:18;99469.78;;;-7.75;51.99
41040;BME280;48586;50.122;18.972;2024-01-11T08:28:25;99467.94;;;-7.61;51.86
41040;BME280;48586;50.122;18.972;2024-01-11T08:31:31;99472.91;;;-7.37;51.76
41040;BME280;48586;50.122;18.972;2024-01-11T08:34:39;99468.47;;;-7.25;51.14
41040;BME280;48586;50.122;18.972;2024-01-11T08:37:47;99467.50;;;-7.15;50.93
41040;BME280;48586;50.122;18.972;2024-01-11T08:40:53;99466.50;;;-7.05;51.01
41040;BME280;48586;50.122;18.972;2024-01-11T08:44:01;99462.97;;;-6.96;50.93
41040;BME280;48586;50.122;18.972;2024-01-11T08:47:08;99448.84;;;-6.77;51.30
41040;BME280;48586;50.122;18.972;2024-01-11T08:50:14;99459.03;;;-6.57;50.47
41040;BME280;48586;50.122;18.972;2024-01-11T08:53:24;99453.75;;;-6.54;50.14
41040;BME280;48586;50.122;18.972;2024-01-11T08:56:30;99458.03;;;-6.47;49.78
41040;BME280;48586;50.122;18.972;2024-01-11T08:59:36;99473.53;;;-6.38;50.08
41040;BME280;48586;50.122;18.972;2024-01-11T09:02:41;99476.06;;;-6.32;49.84
41040;BME280;48586;50.122;18.972;2024-01-11T09:05:49;99482.94;;;-6.28;49.36
41040;BME280;48586;50.122;18.972;2024-01-11T09:09:02;99480.19;;;-6.15;49.71
41040;BME280;48586;50.122;18.972;2024-01-11T09:12:13;99490.47;;;-6.08;49.70
41040;BME280;48586;50.122;18.972;2024-01-11T09:15:19;99499.91;;;-5.98;49.88
41040;BME280;48586;50.122;18.972;2024-01-11T09:18:26;99489.31;;;-5.87;49.61
41040;BME280;48586;50.122;18.972;2024-01-11T09:21:33;99485.50;;;-5.66;49.65
41040;BME280;48586;50.122;18.972;2024-01-11T09:24:43;99480.22;;;-5.60;49.11
41040;BME280;48586;50.122;18.972;2024-01-11T09:27:49;99492.22;;;-5.50;48.78
41040;BME280;48586;50.122;18.972;2024-01-11T09:30:55;99486.78;;;-5.38;49.56
41040;BME280;48586;50.122;18.972;2024-01-11T09:34:02;99474.38;;;-5.25;49.23
41040;BME280;48586;50.122;18.972;2024-01-11T09:37:09;99478.47;;;-5.09;48.25
41040;BME280;48586;50.122;18.972;2024-01-11T09:40:18;99472.31;;;-5.06;47.49
41040;BME280;48586;50.122;18.972;2024-01-11T09:43:25;99463.50;;;-5.02;47.18
41040;BME280;48586;50.122;18.972;2024-01-11T09:46:32;99465.09;;;-4.93;47.28
41040;BME280;48586;50.122;18.972;2024-01-11T09:49:53;99474.63;;;-4.89;48.06
41040;BME280;48586;50.122;18.972;2024-01-11T09:53:03;99465.88;;;-4.88;47.11
41040;BME280;48586;50.122;18.972;2024-01-11T09:56:16;99458.81;;;-4.83;47.83
41040;BME280;48586;50.122;18.972;2024-01-11T09:59:21;99457.00;;;-4.81;47.24
41040;BME280;48586;50.122;18.972;2024-01-11T10:02:30;99431.69;;;-4.76;47.10
41040;BME280;48586;50.122;18.972;2024-01-11T10:05:36;99416.91;;;-4.77;46.30
41040;BME280;48586;50.122;18.972;2024-01-11T10:08:43;99422.88;;;-4.72;46.06
41040;BME280;48586;50.122;18.972;2024-01-11T10:11:51;99426.31;;;-4.70;45.74
41040;BME280;48586;50.122;18.972;2024-01-11T10:15:05;99419.28;;;-4.66;45.48
41040;BME280;48586;50.122;18.972;2024-01-11T10:18:11;99414.09;;;-4.69;45.84
41040;BME280;48586;50.122;18.972;2024-01-11T10:21:16;99422.97;;;-4.77;45.47
41040;BME280;48586;50.122;18.972;2024-01-11T10:24:21;99422.03;;;-4.74;45.79
41040;BME280;48586;50.122;18.972;2024-01-11T10:27:30;99406.47;;;-4.79;45.59
41040;BME280;48586;50.122;18.972;2024-01-11T10:30:35;99390.84;;;-4.82;45.54
41040;BME280;48586;50.122;18.972;2024-01-11T10:33:41;99394.19;;;-4.75;45.85
41040;BME280;48586;50.122;18.972;2024-01-11T10:36:46;99388.97;;;-4.75;45.70
41040;BME280;48586;50.122;18.972;2024-01-11T10:39:53;99390.75;;;-4.77;46.60
41040;BME280;48586;50.122;18.972;2024-01-11T10:43:07;99380.97;;;-4.67;47.25
41040;BME280;48586;50.122;18.972;2024-01-11T10:46:15;99382.72;;;-4.68;46.66
41040;BME280;48586;50.122;18.972;2024-01-11T10:49:26;99384.47;;;-4.68;45.80
41040;BME280;48586;50.122;18.972;2024-01-11T10:52:36;99370.53;;;-4.69;46.11
41040;BME280;48586;50.122;18.972;2024-01-11T10:55:48;99362.66;;;-4.66;46.24
41040;BME280;48586;50.122;18.972;2024-01-11T10:59:05;99358.97;;;-4.57;46.26
41040;BME280;48586;50.122;18.972;2024-01-11T11:02:09;99348.50;;;-4.56;46.64
41040;BME280;48586;50.122;18.972;2024-01-11T11:05:18;99344.97;;;-4.55;45.71
41040;BME280;48586;50.122;18.972;2024-01-11T11:08:25;99344.03;;;-4.52;45.90
41040;BME280;48586;50.122;18.972;2024-01-11T11:11:34;99344.81;;;-4.49;45.50
41040;BME280;48586;50.122;18.972;2024-01-11T11:14:46;99348.19;;;-4.44;45.85
41040;BME280;48586;50.122;18.972;2024-01-11T11:17:52;99339.47;;;-4.43;45.83
41040;BME280;48586;50.122;18.972;2024-01-11T11:20:57;99334.31;;;-4.46;46.02
41040;BME280;48586;50.122;18.972;2024-01-11T11:24:03;99328.22;;;-4.46;45.82
41040;BME280;48586;50.122;18.972;2024-01-11T11:27:07;99329.91;;;-4.44;46.43
41040;BME280;48586;50.122;18.972;2024-01-11T11:30:18;99330.56;;;-4.34;46.17
41040;BME280;48586;50.122;18.972;2024-01-11T11:33:24;99324.00;;;-4.16;46.45
41040;BME280;48586;50.122;18.972;2024-01-11T11:36:30;99309.84;;;-4.07;45.53
41040;BME280;48586;50.122;18.972;2024-01-11T11:39:35;99300.00;;;-3.98;45.84
41040;BME280;48586;50.122;18.972;2024-01-11T11:42:41;99299.69;;;-3.86;45.16
41040;BME280;48586;50.122;18.972;2024-01-11T11:45:50;99294.69;;;-3.61;44.98
41040;BME280;48586;50.122;18.972;2024-01-11T11:48:56;99294.81;;;-3.34;43.73
41040;BME280;48586;50.122;18.972;2024-01-11T11:52:02;99297.94;;;-3.21;43.31
41040;BME280;48586;50.122;18.972;2024-01-11T11:55:08;99285.63;;;-3.18;43.46
41040;BME280;48586;50.122;18.972;2024-01-11T11:58:14;99275.94;;;-3.16;43.45
41040;BME280;48586;50.122;18.972;2024-01-11T12:01:24;99270.25;;;-3.01;42.88
41040;BME280;48586;50.122;18.972;2024-01-11T12:04:29;99265.00;;;-3.01;42.68
41040;BME280;48586;50.122;18.972;2024-01-11T12:07:35;99263.34;;;-3.03;42.70
41040;BME280;48586;50.122;18.972;2024-01-11T12:10:40;99266.56;;;-2.93;43.44
41040;BME280;48586;50.122;18.972;2024-01-11T12:13:46;99258.63;;;-2.92;42.50
41040;BME280;48586;50.122;18.972;2024-01-11T12:16:58;99259.53;;;-2.93;42.98
41040;BME280;48586;50.122;18.972;2024-01-11T12:20:05;99266.22;;;-2.83;42.62
41040;BME280;48586;50.122;18.972;2024-01-11T12:23:10;99258.25;;;-2.80;42.88
41040;BME280;48586;50.122;18.972;2024-01-11T12:26:17;99251.97;;;-2.74;41.89
41040;BME280;48586;50.122;18.972;2024-01-11T12:29:23;99244.63;;;-2.63;41.61
41040;BME280;48586;50.122;18.972;2024-01-11T12:32:31;99233.38;;;-2.67;41.09
41040;BME280;48586;50.122;18.972;2024-01-11T12:35:40;99229.25;;;-2.74;41.07
41040;BME280;48586;50.122;18.972;2024-01-11T12:38:52;99218.47;;;-2.92;41.00
41040;BME280;48586;50.122;18.972;2024-01-11T12:41:56;99210.50;;;-2.89;41.39
41040;BME280;48586;50.122;18.972;2024-01-11T12:45:03;99211.47;;;-2.92;41.09
41040;BME280;48586;50.122;18.972;2024-01-11T12:48:11;99191.56;;;-2.98;41.18
41040;BME280;48586;50.122;18.972;2024-01-11T12:51:19;99202.66;;;-2.89;41.11
41040;BME280;48586;50.122;18.972;2024-01-11T12:54:25;99215.69;;;-2.88;41.35
41040;BME280;48586;50.122;18.972;2024-01-11T12:57:30;99208.94;;;-2.95;41.39
41040;BME280;48586;50.122;18.972;2024-01-11T13:00:35;99203.56;;;-2.90;41.72
41040;BME280;48586;50.122;18.972;2024-01-11T13:03:46;99206.22;;;-2.92;41.08
41040;BME280;48586;50.122;18.972;2024-01-11T13:06:51;99198.41;;;-2.93;41.57
41040;BME280;48586;50.122;18.972;2024-01-11T13:09:57;99189.88;;;-3.00;41.06
41040;BME280;48586;50.122;18.972;2024-01-11T13:13:05;99195.38;;;-3.08;41.25
41040;BME280;48586;50.122;18.972;2024-01-11T13:16:10;99190.47;;;-3.18;41.41
41040;BME280;48586;50.122;18.972;2024-01-11T13:19:18;99175.84;;;-3.26;41.53
41040;BME280;48586;50.122;18.972;2024-01-11T13:22:23;99175.88;;;-3.27;43.04
41040;BME280;48586;50.122;18.972;2024-01-11T13:25:29;99163.66;;;-3.27;43.21
41040;BME280;48586;50.122;18.972;2024-01-11T13:28:34;99156.91;;;-3.35;41.99
41040;BME280;48586;50.122;18.972;2024-01-11T13:31:38;99150.97;;;-3.40;43.70
41040;BME280;48586;50.122;18.972;2024-01-11T13:34:46;99152.06;;;-3.47;42.81
41040;BME280;48586;50.122;18.972;2024-01-11T13:37:54;99156.66;;;-3.56;43.38
41040;BME280;48586;50.122;18.972;2024-01-11T13:40:59;99162.91;;;-3.60;43.65
41040;BME280;48586;50.122;18.972;2024-01-11T13:44:04;99163.97;;;-3.67;43.89
41040;BME280;48586;50.122;18.972;2024-01-11T13:47:11;99164.97;;;-3.71;44.16
41040;BME280;48586;50.122;18.972;2024-01-11T13:50:19;99173.63;;;-3.69;44.31
41040;BME280;48586;50.122;18.972;2024-01-11T13:53:25;99172.66;;;-3.66;44.07
41040;BME280;48586;50.122;18.972;2024-01-11T13:56:30;99176.16;;;-3.66;44.48
41040;BME280;48586;50.122;18.972;2024-01-11T13:59:36;99178.66;;;-3.63;44.95
41040;BME280;48586;50.122;18.972;2024-01-11T14:02:41;99181.44;;;-3.67;44.56
41040;BME280;48586;50.122;18.972;2024-01-11T14:05:49;99172.63;;;-3.65;45.48
41040;BME280;48586;50.122;18.972;2024-01-11T14:08:56;99176.94;;;-3.64;45.38
41040;BME280;48586;50.122;18.972;2024-01-11T14:12:02;99178.81;;;-3.67;44.54
41040;BME280;48586;50.122;18.972;2024-01-11T14:15:09;99185.81;;;-3.68;45.47
41040;BME280;48586;50.122;18.972;2024-01-11T14:18:15;99183.09;;;-3.65;45.35
41040;BME280;48586;50.122;18.972;2024-01-11T14:21:23;99180.53;;;-3.66;45.63
41040;BME280;48586;50.122;18.972;2024-01-11T14:24:28;99188.44;;;-3.68;45.73
41040;BME280;48586;50.122;18.972;2024-01-11T14:27:33;99178.88;;;-3.69;45.99
41040;BME280;48586;50.122;18.972;2024-01-11T14:30:38;99182.44;;;-3.73;45.53
41040;BME280;48586;50.122;18.972;2024-01-11T14:33:43;99190.44;;;-3.77;46.06
41040;BME280;48586;50.122;18.972;2024-01-11T14:36:51;99187.00;;;-3.79;46.33
41040;BME280;48586;50.122;18.972;2024-01-11T14:39:55;99185.34;;;-3.82;46.84
41040;BME280;48586;50.122;18.972;2024-01-11T14:43:02;99194.09;;;-3.83;46.62
41040;BME280;48586;50.122;18.972;2024-01-11T14:46:09;99198.34;;;-3.79;47.75
41040;BME280;48586;50.122;18.972;2024-01-11T14:49:15;99209.66;;;-3.78;48.66
41040;BME280;48586;50.122;18.972;2024-01-11T14:52:22;99219.31;;;-3.80;50.02
41040;BME280;48586;50.122;18.972;2024-01-11T14:55:27;99230.50;;;-3.75;51.26
41040;BME280;48586;50.122;18.972;2024-01-11T14:58:32;99241.03;;;-3.77;51.78
41040;BME280;48586;50.122;18.972;2024-01-11T15:01:37;99239.31;;;-3.78;52.45
41040;BME280;48586;50.122;18.972;2024-01-11T15:04:42;99236.06;;;-3.88;53.32
41040;BME280;48586;50.122;18.972;2024-01-11T15:07:50;99238.75;;;-3.89;53.91
41040;BME280;48586;50.122;18.972;2024-01-11T15:10:56;99233.88;;;-4.03;54.19
41040;BME280;48586;50.122;18.972;2024-01-11T15:14:01;99235.88;;;-4.13;55.57
41040;BME280;48586;50.122;18.972;2024-01-11T15:17:06;99229.91;;;-4.18;55.55
41040;BME280;48586;50.122;18.972;2024-01-11T15:20:12;99226.59;;;-4.24;55.64
41040;BME280;48586;50.122;18.972;2024-01-11T15:23:19;99228.59;;;-4.34;55.90
41040;BME280;48586;50.122;18.972;2024-01-11T15:26:25;99235.56;;;-4.34;56.02
41040;BME280;48586;50.122;18.972;2024-01-11T15:29:30;99238.88;;;-4.28;56.20
41040;BME280;48586;50.122;18.972;2024-01-11T15:32:37;99223.19;;;-4.28;56.17
41040;BME280;48586;50.122;18.972;2024-01-11T15:35:43;99223.75;;;-4.17;55.40
41040;BME280;48586;50.122;18.972;2024-01-11T15:38:54;99234.44;;;-4.24;54.60
41040;BME280;48586;50.122;18.972;2024-01-11T15:42:00;99247.47;;;-4.23;55.78
41040;BME280;48586;50.122;18.972;2024-01-11T15:45:07;99238.53;;;-4.14;55.95
41040;BME280;48586;50.122;18.972;2024-01-11T15:48:14;99248.00;;;-4.10;55.47
41040;BME280;48586;50.122;18.972;2024-01-11T15:51:20;99250.66;;;-4.11;55.07
41040;BME280;48586;50.122;18.972;2024-01-11T15:54:29;99257.69;;;-4.14;56.10
41040;BME280;48586;50.122;18.972;2024-01-11T15:57:36;99251.66;;;-4.17;56.10
41040;BME280;48586;50.122;18.972;2024-01-11T16:00:43;99237.97;;;-4.25;56.25
41040;BME280;48586;50.122;18.972;2024-01-11T16:03:50;99255.19;;;-4.18;56.57
41040;BME280;48586;50.122;18.972;2024-01-11T16:06:55;99258.75;;;-4.21;56.73
41040;BME280;48586;50.122;18.972;2024-01-11T16:10:05;99261.44;;;-4.24;56.87
41040;BME280;48586;50.122;18.972;2024-01-11T16:13:12;99260.00;;;-4.35;57.10